createdAt,value
2023-03-29T00:00:52.160Z,4.96
2023-03-29T00:01:52.242Z,4.97
2023-03-29T00:02:52.233Z,4.96
2023-03-29T00:03:52.276Z,4.96
2023-03-29T00:04:52.118Z,4.96
2023-03-29T00:05:52.102Z,4.96
2023-03-29T00:06:52.107Z,4.96
2023-03-29T00:07:52.082Z,4.94
2023-03-29T00:08:52.077Z,4.93
2023-03-29T00:09:52.070Z,4.93
2023-03-29T00:10:52.061Z,4.93
2023-03-29T00:11:52.059Z,4.93
2023-03-29T00:12:52.039Z,4.89
2023-03-29T00:13:52.021Z,4.88
2023-03-29T00:14:52.023Z,4.86
2023-03-29T00:15:52.006Z,4.85
2023-03-29T00:16:52.154Z,4.85
2023-03-29T00:17:52.040Z,4.83
2023-03-29T00:18:51.973Z,4.82
2023-03-29T00:19:51.974Z,4.82
2023-03-29T00:20:51.954Z,4.82
2023-03-29T00:21:51.964Z,4.79
2023-03-29T00:22:51.957Z,4.79
2023-03-29T00:23:51.931Z,4.77
2023-03-29T00:24:51.916Z,4.75
2023-03-29T00:25:51.913Z,4.74
2023-03-29T00:26:51.910Z,4.75
2023-03-29T00:27:51.884Z,4.74
2023-03-29T00:28:51.871Z,4.74
2023-03-29T00:29:51.902Z,4.75
2023-03-29T00:30:51.865Z,4.75
2023-03-29T00:31:51.936Z,4.77
2023-03-29T00:32:51.905Z,4.77
2023-03-29T00:33:51.824Z,4.78
2023-03-29T00:34:51.813Z,4.79
2023-03-29T00:35:51.844Z,4.82
2023-03-29T00:36:51.825Z,4.79
2023-03-29T00:37:51.799Z,4.79
2023-03-29T00:38:51.774Z,4.79
2023-03-29T00:39:51.771Z,4.79
2023-03-29T00:40:51.753Z,4.79
2023-03-29T00:41:51.756Z,4.78
2023-03-29T00:42:51.732Z,4.82
2023-03-29T00:43:51.729Z,4.79
2023-03-29T00:44:51.711Z,4.82
2023-03-29T00:45:51.716Z,4.83
2023-03-29T00:46:51.755Z,4.83
2023-03-29T00:47:51.747Z,4.83
2023-03-29T00:48:51.673Z,4.82
2023-03-29T00:49:51.683Z,4.82
2023-03-29T00:50:51.658Z,4.82
2023-03-29T00:51:51.678Z,4.83
2023-03-29T00:52:51.643Z,4.83
2023-03-29T00:53:51.629Z,4.85
2023-03-29T00:54:51.614Z,4.86
2023-03-29T00:55:51.606Z,4.85
2023-03-29T00:56:51.677Z,4.85
2023-03-29T00:57:51.601Z,4.82
2023-03-29T00:58:51.568Z,4.83
2023-03-29T00:59:51.560Z,4.82
2023-03-29T01:00:51.555Z,4.79
2023-03-29T01:01:51.608Z,4.78
2023-03-29T01:02:51.662Z,4.77
2023-03-29T01:03:51.572Z,4.77
2023-03-29T01:04:51.510Z,4.77
2023-03-29T01:05:51.518Z,4.77
2023-03-29T01:06:51.557Z,4.78
2023-03-29T01:07:51.500Z,4.77
2023-03-29T01:08:51.472Z,4.75
2023-03-29T01:09:51.475Z,4.77
2023-03-29T01:10:51.450Z,4.77
2023-03-29T01:11:51.442Z,4.74
2023-03-29T01:12:51.443Z,4.72
2023-03-29T01:13:51.435Z,4.72
2023-03-29T01:14:51.406Z,4.71
2023-03-29T01:15:51.407Z,4.71
2023-03-29T01:16:51.473Z,4.72
2023-03-29T01:17:51.468Z,4.69
2023-03-29T01:18:51.368Z,4.67
2023-03-29T01:19:51.371Z,4.67
2023-03-29T01:20:51.348Z,4.67
2023-03-29T01:21:51.358Z,4.66
2023-03-29T01:22:51.349Z,4.64
2023-03-29T01:23:51.326Z,4.63
2023-03-29T01:24:51.314Z,4.63
2023-03-29T01:25:51.308Z,4.59
2023-03-29T01:26:51.302Z,4.60
2023-03-29T01:27:51.298Z,4.57
2023-03-29T01:28:51.281Z,4.57
2023-03-29T01:29:51.397Z,4.56
2023-03-29T01:30:51.261Z,4.57
2023-03-29T01:31:51.284Z,4.54
2023-03-29T01:32:51.290Z,4.54
2023-03-29T01:33:51.233Z,4.53
2023-03-29T01:34:51.215Z,4.53
2023-03-29T01:35:51.278Z,4.53
2023-03-29T01:36:51.196Z,4.51
2023-03-29T01:37:51.205Z,4.51
2023-03-29T01:38:51.169Z,4.51
2023-03-29T01:39:51.163Z,4.49
2023-03-29T01:40:51.174Z,4.49
2023-03-29T01:41:51.147Z,4.49
2023-03-29T01:42:51.138Z,4.49
2023-03-29T01:43:51.123Z,4.48
2023-03-29T01:44:51.113Z,4.48
2023-03-29T01:45:51.108Z,4.48
2023-03-29T01:46:51.087Z,4.48
2023-03-29T01:47:51.135Z,4.46
2023-03-29T01:48:51.081Z,4.46
2023-03-29T01:49:51.077Z,4.49
2023-03-29T01:50:51.088Z,4.46
2023-03-29T01:51:51.042Z,4.49
2023-03-29T01:52:51.041Z,4.49
2023-03-29T01:53:51.019Z,4.46
2023-03-29T01:54:51.004Z,4.46
2023-03-29T01:55:51.011Z,4.46
2023-03-29T01:56:51.026Z,4.45
2023-03-29T01:57:50.996Z,4.43
2023-03-29T01:58:50.970Z,4.42
2023-03-29T01:59:50.973Z,4.41
2023-03-29T02:00:50.945Z,4.41
2023-03-29T02:01:51.050Z,4.41
2023-03-29T02:02:50.991Z,4.41
2023-03-29T02:03:50.945Z,4.39
2023-03-29T02:04:50.912Z,4.39
2023-03-29T02:05:50.904Z,4.39
2023-03-29T02:06:50.887Z,4.39
2023-03-29T02:07:50.895Z,4.39
2023-03-29T02:08:50.870Z,4.39
2023-03-29T02:09:50.862Z,4.36
2023-03-29T02:10:50.860Z,4.36
2023-03-29T02:11:50.846Z,4.36
2023-03-29T02:12:50.879Z,4.38
2023-03-29T02:13:50.820Z,4.36
2023-03-29T02:14:50.815Z,4.38
2023-03-29T02:15:50.830Z,4.38
2023-03-29T02:16:50.786Z,4.36
2023-03-29T02:17:50.900Z,4.38
2023-03-29T02:18:50.773Z,4.36
2023-03-29T02:19:50.759Z,4.38
2023-03-29T02:20:50.763Z,4.38
2023-03-29T02:21:50.764Z,4.38
2023-03-29T02:22:50.742Z,4.38
2023-03-29T02:23:50.725Z,4.38
2023-03-29T02:24:50.713Z,4.39
2023-03-29T02:25:50.696Z,4.41
2023-03-29T02:26:50.690Z,4.41
2023-03-29T02:27:50.701Z,4.41
2023-03-29T02:28:50.669Z,4.42
2023-03-29T02:29:50.657Z,4.42
2023-03-29T02:30:50.691Z,4.41
2023-03-29T02:31:50.648Z,4.41
2023-03-29T02:32:50.783Z,4.41
2023-03-29T02:33:50.623Z,4.38
2023-03-29T02:34:50.604Z,4.38
2023-03-29T02:35:50.631Z,4.41
2023-03-29T02:36:50.585Z,4.41
2023-03-29T02:37:50.591Z,4.41
2023-03-29T02:38:50.575Z,4.38
2023-03-29T02:39:50.576Z,4.38
2023-03-29T02:40:50.542Z,4.36
2023-03-29T02:41:50.556Z,4.39
2023-03-29T02:42:50.537Z,4.36
2023-03-29T02:43:50.528Z,4.38
2023-03-29T02:44:50.502Z,4.38
2023-03-29T02:45:50.497Z,4.36
2023-03-29T02:46:50.519Z,4.38
2023-03-29T02:47:50.529Z,4.35
2023-03-29T02:48:50.470Z,4.35
2023-03-29T02:49:50.469Z,4.36
2023-03-29T02:50:50.446Z,4.36
2023-03-29T02:51:50.437Z,4.35
2023-03-29T02:52:50.435Z,4.35
2023-03-29T02:53:50.423Z,4.35
2023-03-29T02:54:50.417Z,4.35
2023-03-29T02:55:50.409Z,4.38
2023-03-29T02:56:50.481Z,4.36
2023-03-29T02:57:50.396Z,4.38
2023-03-29T02:58:50.401Z,4.36
2023-03-29T02:59:50.373Z,4.34
2023-03-29T03:00:50.347Z,4.35
2023-03-29T03:01:50.348Z,4.35
2023-03-29T03:02:50.423Z,4.36
2023-03-29T03:03:50.426Z,4.35
2023-03-29T03:04:50.303Z,4.35
2023-03-29T03:05:50.313Z,4.35
2023-03-29T03:06:50.317Z,4.34
2023-03-29T03:07:50.294Z,4.35
2023-03-29T03:08:50.262Z,4.34
2023-03-29T03:09:50.272Z,4.31
2023-03-29T03:10:50.251Z,4.34
2023-03-29T03:11:50.240Z,4.35
2023-03-29T03:12:50.237Z,4.35
2023-03-29T03:13:50.228Z,4.34
2023-03-29T03:14:50.212Z,4.35
2023-03-29T03:15:50.277Z,4.34
2023-03-29T03:16:50.512Z,4.31
2023-03-29T03:17:50.213Z,4.31
2023-03-29T03:18:50.169Z,4.28
2023-03-29T03:19:50.182Z,4.28
2023-03-29T03:20:50.145Z,4.28
2023-03-29T03:21:50.140Z,4.31
2023-03-29T03:22:50.124Z,4.31
2023-03-29T03:23:50.141Z,4.31
2023-03-29T03:24:50.118Z,4.31
2023-03-29T03:25:50.101Z,4.35
2023-03-29T03:26:50.082Z,4.34
2023-03-29T03:27:50.079Z,4.35
2023-03-29T03:28:50.070Z,4.34
2023-03-29T03:29:50.054Z,4.34
2023-03-29T03:30:50.041Z,4.34
2023-03-29T03:31:51.297Z,4.34
2023-03-29T03:32:50.057Z,4.35
2023-03-29T03:33:50.028Z,4.34
2023-03-29T03:34:50.013Z,4.36
2023-03-29T03:35:50.034Z,4.38
2023-03-29T03:36:49.989Z,4.39
2023-03-29T03:37:49.976Z,4.39
2023-03-29T03:38:49.972Z,4.38
2023-03-29T03:39:49.952Z,4.39
2023-03-29T03:40:49.938Z,4.38
2023-03-29T03:41:49.943Z,4.39
2023-03-29T03:42:49.917Z,4.38
2023-03-29T03:43:49.929Z,4.39
2023-03-29T03:44:49.903Z,4.38
2023-03-29T03:45:49.952Z,4.38
2023-03-29T03:46:49.877Z,4.38
2023-03-29T03:47:49.873Z,4.41
2023-03-29T03:48:49.866Z,4.39
2023-03-29T03:49:49.864Z,4.39
2023-03-29T03:50:49.839Z,4.39
2023-03-29T03:51:51.042Z,4.39
2023-03-29T03:52:49.821Z,4.38
2023-03-29T03:53:49.830Z,4.39
2023-03-29T03:54:49.796Z,4.38
2023-03-29T03:55:49.788Z,4.36
2023-03-29T03:56:49.802Z,4.38
2023-03-29T03:57:49.768Z,4.38
2023-03-29T03:58:49.768Z,4.35
2023-03-29T03:59:49.764Z,4.36
2023-03-29T04:00:49.740Z,4.36
2023-03-29T04:01:49.741Z,4.36
2023-03-29T04:02:49.837Z,4.38
2023-03-29T04:03:49.790Z,4.39
2023-03-29T04:04:49.701Z,4.39
2023-03-29T04:05:49.687Z,4.39
2023-03-29T04:06:49.684Z,4.39
2023-03-29T04:07:49.743Z,4.38
2023-03-29T04:08:49.686Z,4.39
2023-03-29T04:09:49.650Z,4.41
2023-03-29T04:10:49.635Z,4.38
2023-03-29T04:11:49.637Z,4.38
2023-03-29T04:12:49.630Z,4.36
2023-03-29T04:13:49.626Z,4.36
2023-03-29T04:14:49.591Z,4.39
2023-03-29T04:15:49.641Z,4.38
2023-03-29T04:16:49.580Z,4.38
2023-03-29T04:17:49.617Z,4.36
2023-03-29T04:18:49.643Z,4.36
2023-03-29T04:19:49.563Z,4.36
2023-03-29T04:20:49.559Z,4.36
2023-03-29T04:21:49.607Z,4.36
2023-03-29T04:22:49.534Z,4.38
2023-03-29T04:23:49.522Z,4.36
2023-03-29T04:24:49.501Z,4.35
2023-03-29T04:25:49.486Z,4.34
2023-03-29T04:26:49.472Z,4.31
2023-03-29T04:27:49.479Z,4.30
2023-03-29T04:28:49.467Z,4.30
2023-03-29T04:29:49.454Z,4.30
2023-03-29T04:30:49.454Z,4.28
2023-03-29T04:31:49.556Z,4.26
2023-03-29T04:32:49.527Z,4.28
2023-03-29T04:33:49.421Z,4.27
2023-03-29T04:34:49.538Z,4.28
2023-03-29T04:35:49.447Z,4.27
2023-03-29T04:36:49.380Z,4.26
2023-03-29T04:37:49.366Z,4.26
2023-03-29T04:38:49.380Z,4.26
2023-03-29T04:39:49.351Z,4.24
2023-03-29T04:40:49.344Z,4.26
2023-03-29T04:41:49.340Z,4.24
2023-03-29T04:42:49.329Z,4.28
2023-03-29T04:43:49.333Z,4.27
2023-03-29T04:44:49.342Z,4.27
2023-03-29T04:45:49.300Z,4.26
2023-03-29T04:46:49.303Z,4.27
2023-03-29T04:47:49.313Z,4.27
2023-03-29T04:48:49.284Z,4.27
2023-03-29T04:49:49.248Z,4.28
2023-03-29T04:50:49.247Z,4.27
2023-03-29T04:51:49.227Z,4.27
2023-03-29T04:52:49.234Z,4.27
2023-03-29T04:53:49.237Z,4.26
2023-03-29T04:54:49.234Z,4.28
2023-03-29T04:55:49.196Z,4.28
2023-03-29T04:56:49.197Z,4.27
2023-03-29T04:57:49.181Z,4.28
2023-03-29T04:58:49.180Z,4.28
2023-03-29T04:59:49.157Z,4.27
2023-03-29T05:00:49.149Z,4.28
2023-03-29T05:01:49.221Z,4.30
2023-03-29T05:02:49.171Z,4.30
2023-03-29T05:03:49.180Z,4.30
2023-03-29T05:04:49.120Z,4.31
2023-03-29T05:05:49.051Z,4.34
2023-03-29T05:06:49.111Z,4.34
2023-03-29T05:07:49.070Z,4.34
2023-03-29T05:08:49.076Z,4.36
2023-03-29T05:09:49.058Z,4.35
2023-03-29T05:10:49.044Z,4.36
2023-03-29T05:11:49.030Z,4.36
2023-03-29T05:12:49.023Z,4.39
2023-03-29T05:13:49.105Z,4.39
2023-03-29T05:14:49.010Z,4.41
2023-03-29T05:15:49.017Z,4.41
2023-03-29T05:16:48.982Z,4.42
2023-03-29T05:17:49.067Z,4.43
2023-03-29T05:18:48.977Z,4.45
2023-03-29T05:19:48.955Z,4.45
2023-03-29T05:20:48.973Z,4.45
2023-03-29T05:21:48.926Z,4.45
2023-03-29T05:22:48.877Z,4.46
2023-03-29T05:23:48.862Z,4.46
2023-03-29T05:24:48.858Z,4.46
2023-03-29T05:25:48.845Z,4.48
2023-03-29T05:26:48.835Z,4.49
2023-03-29T05:27:48.814Z,4.51
2023-03-29T05:28:48.820Z,4.53
2023-03-29T05:29:48.788Z,4.54
2023-03-29T05:30:48.787Z,4.54
2023-03-29T05:31:48.862Z,4.56
2023-03-29T05:32:48.888Z,4.56
2023-03-29T05:33:48.771Z,4.54
2023-03-29T05:34:48.741Z,4.56
2023-03-29T05:35:48.774Z,4.54
2023-03-29T05:36:48.746Z,4.54
2023-03-29T05:37:48.707Z,4.54
2023-03-29T05:38:48.715Z,4.53
2023-03-29T05:39:48.729Z,4.54
2023-03-29T05:40:48.689Z,4.56
2023-03-29T05:41:48.668Z,4.54
2023-03-29T05:42:48.662Z,4.57
2023-03-29T05:43:48.665Z,4.56
2023-03-29T05:44:48.639Z,4.57
2023-03-29T05:45:48.674Z,4.57
2023-03-29T05:46:48.623Z,4.60
2023-03-29T05:47:48.639Z,4.59
2023-03-29T05:48:48.669Z,4.60
2023-03-29T05:49:48.594Z,4.61
2023-03-29T05:50:48.580Z,4.63
2023-03-29T05:51:48.564Z,4.64
2023-03-29T05:52:48.562Z,4.64
2023-03-29T05:53:48.569Z,4.66
2023-03-29T05:54:48.550Z,4.67
2023-03-29T05:55:48.527Z,4.67
2023-03-29T05:56:48.580Z,4.69
2023-03-29T05:57:48.504Z,4.71
2023-03-29T05:58:48.521Z,4.72
2023-03-29T05:59:48.486Z,4.71
2023-03-29T06:00:48.480Z,4.72
2023-03-29T06:01:48.476Z,4.72
2023-03-29T06:02:48.564Z,4.74
2023-03-29T06:03:48.600Z,4.75
2023-03-29T06:04:48.465Z,4.77
2023-03-29T06:05:49.656Z,4.77
2023-03-29T06:06:48.424Z,4.78
2023-03-29T06:07:48.419Z,4.78
2023-03-29T06:08:48.416Z,4.82
2023-03-29T06:09:48.388Z,4.82
2023-03-29T06:10:48.421Z,4.82
2023-03-29T06:11:48.368Z,4.85
2023-03-29T06:12:48.362Z,4.85
2023-03-29T06:13:48.371Z,4.86
2023-03-29T06:14:48.343Z,4.86
2023-03-29T06:15:48.330Z,4.89
2023-03-29T06:16:48.374Z,4.91
2023-03-29T06:17:48.315Z,4.89
2023-03-29T06:18:48.319Z,4.93
2023-03-29T06:19:48.309Z,4.96
2023-03-29T06:20:48.281Z,4.98
2023-03-29T06:21:48.267Z,4.98
2023-03-29T06:22:48.282Z,5.01
2023-03-29T06:23:48.272Z,5.03
2023-03-29T06:24:48.248Z,5.04
2023-03-29T06:25:48.225Z,5.06
2023-03-29T06:26:48.228Z,5.07
2023-03-29T06:27:48.211Z,5.07
2023-03-29T06:28:49.967Z,5.11
2023-03-29T06:29:48.209Z,5.11
2023-03-29T06:30:48.220Z,5.12
2023-03-29T06:31:48.409Z,5.14
2023-03-29T06:32:48.210Z,5.14
2023-03-29T06:33:48.150Z,5.15
2023-03-29T06:34:48.156Z,5.16
2023-03-29T06:35:48.208Z,5.18
2023-03-29T06:36:48.123Z,5.19
2023-03-29T06:37:48.110Z,5.21
2023-03-29T06:38:48.121Z,5.21
2023-03-29T06:39:48.104Z,5.24
2023-03-29T06:40:48.084Z,5.25
2023-03-29T06:41:48.070Z,5.29
2023-03-29T06:42:48.059Z,5.29
2023-03-29T06:43:48.057Z,5.30
2023-03-29T06:44:48.052Z,5.32
2023-03-29T06:45:48.030Z,5.32
2023-03-29T06:46:48.116Z,5.32
2023-03-29T06:47:48.034Z,5.33
2023-03-29T06:48:48.000Z,5.34
2023-03-29T06:49:48.007Z,5.34
2023-03-29T06:50:47.984Z,5.36
2023-03-29T06:51:47.970Z,5.37
2023-03-29T06:52:47.965Z,5.39
2023-03-29T06:53:47.944Z,5.40
2023-03-29T06:54:47.965Z,5.43
2023-03-29T06:55:47.925Z,5.44
2023-03-29T06:56:47.960Z,5.47
2023-03-29T06:57:47.909Z,5.48
2023-03-29T06:58:47.908Z,5.50
2023-03-29T06:59:47.898Z,5.51
2023-03-29T07:00:47.879Z,5.52
2023-03-29T07:01:47.894Z,5.52
2023-03-29T07:02:47.893Z,5.54
2023-03-29T07:03:47.944Z,5.55
2023-03-29T07:04:47.885Z,5.57
2023-03-29T07:05:47.877Z,5.57
2023-03-29T07:06:47.821Z,5.58
2023-03-29T07:07:47.806Z,5.59
2023-03-29T07:08:47.837Z,5.58
2023-03-29T07:09:47.802Z,5.59
2023-03-29T07:10:47.774Z,5.59
2023-03-29T07:11:47.765Z,5.62
2023-03-29T07:12:47.756Z,5.62
2023-03-29T07:13:47.742Z,5.62
2023-03-29T07:14:47.765Z,5.65
2023-03-29T07:15:47.728Z,5.66
2023-03-29T07:16:47.756Z,5.67
2023-03-29T07:17:47.833Z,5.69
2023-03-29T07:18:47.700Z,5.69
2023-03-29T07:19:47.701Z,5.70
2023-03-29T07:20:47.676Z,5.70
2023-03-29T07:21:47.660Z,5.72
2023-03-29T07:22:47.658Z,5.73
2023-03-29T07:23:47.644Z,5.76
2023-03-29T07:24:47.650Z,5.75
2023-03-29T07:25:47.627Z,5.77
2023-03-29T07:27:00.040Z,5.76
2023-03-29T07:27:48.602Z,5.77
2023-03-29T07:28:47.605Z,5.79
2023-03-29T07:29:47.601Z,5.82
2023-03-29T07:30:47.581Z,5.82
2023-03-29T07:31:47.570Z,5.84
2023-03-29T07:32:47.660Z,5.84
2023-03-29T07:33:47.605Z,5.85
2023-03-29T07:34:47.549Z,5.87
2023-03-29T07:35:47.539Z,5.85
2023-03-29T07:36:47.531Z,5.88
2023-03-29T07:37:47.509Z,5.88
2023-03-29T07:38:47.497Z,5.90
2023-03-29T07:39:47.527Z,5.90
2023-03-29T07:40:47.572Z,5.93
2023-03-29T07:41:47.459Z,5.93
2023-03-29T07:42:47.474Z,5.94
2023-03-29T07:43:47.465Z,5.97
2023-03-29T07:44:47.446Z,5.98
2023-03-29T07:45:47.435Z,6.00
2023-03-29T07:46:47.420Z,6.02
2023-03-29T07:47:47.424Z,6.03
2023-03-29T07:48:47.395Z,6.05
2023-03-29T07:49:47.385Z,6.08
2023-03-29T07:50:47.370Z,6.08
2023-03-29T07:51:47.357Z,6.09
2023-03-29T07:52:47.351Z,6.09
2023-03-29T07:53:47.338Z,6.11
2023-03-29T07:54:47.374Z,6.12
2023-03-29T07:55:47.879Z,6.13
2023-03-29T07:56:47.359Z,6.16
2023-03-29T07:57:47.295Z,6.18
2023-03-29T07:58:47.296Z,6.21
2023-03-29T07:59:47.285Z,6.21
2023-03-29T08:00:47.332Z,6.25
2023-03-29T08:01:47.258Z,6.27
2023-03-29T08:02:47.280Z,6.28
2023-03-29T08:03:47.365Z,6.31
2023-03-29T08:04:47.319Z,6.32
2023-03-29T08:05:47.227Z,6.35
2023-03-29T08:06:47.207Z,6.38
2023-03-29T08:07:47.193Z,6.38
2023-03-29T08:08:47.215Z,6.42
2023-03-29T08:09:47.188Z,6.45
2023-03-29T08:10:47.171Z,6.45
2023-03-29T08:11:47.178Z,6.47
2023-03-29T08:12:47.148Z,6.49
2023-03-29T08:13:47.134Z,6.52
2023-03-29T08:14:47.154Z,6.55
2023-03-29T08:15:47.121Z,6.57
2023-03-29T08:16:47.127Z,6.61
2023-03-29T08:17:47.148Z,6.61
2023-03-29T08:18:47.091Z,6.64
2023-03-29T08:19:51.316Z,6.67
2023-03-29T08:20:48.078Z,6.68
2023-03-29T08:21:47.066Z,6.70
2023-03-29T08:22:47.119Z,6.75
2023-03-29T08:23:47.106Z,6.75
2023-03-29T08:24:47.042Z,6.79
2023-03-29T08:25:47.021Z,6.81
2023-03-29T08:26:47.024Z,6.83
2023-03-29T08:27:47.007Z,6.83
2023-03-29T08:28:46.998Z,6.86
2023-03-29T08:29:46.993Z,6.88
2023-03-29T08:30:47.013Z,6.89
2023-03-29T08:31:46.958Z,6.89
2023-03-29T08:32:49.970Z,6.91
2023-03-29T08:33:46.937Z,6.93
2023-03-29T08:34:46.949Z,6.96
2023-03-29T08:35:46.957Z,6.96
2023-03-29T08:36:46.917Z,6.96
2023-03-29T08:37:46.896Z,6.99
2023-03-29T08:38:46.889Z,6.99
2023-03-29T08:39:46.894Z,6.99
2023-03-29T08:40:46.888Z,6.99
2023-03-29T08:41:46.854Z,7.00
2023-03-29T08:42:46.856Z,6.99
2023-03-29T08:43:46.841Z,7.00
2023-03-29T08:44:46.849Z,7.01
2023-03-29T08:45:48.998Z,7.01
2023-03-29T08:46:46.855Z,7.04
2023-03-29T08:47:46.872Z,7.06
2023-03-29T08:48:46.798Z,7.07
2023-03-29T08:49:46.789Z,7.07
2023-03-29T08:50:46.794Z,7.10
2023-03-29T08:51:46.759Z,7.08
2023-03-29T08:52:46.748Z,7.10
2023-03-29T08:53:46.748Z,7.10
2023-03-29T08:54:46.725Z,7.10
2023-03-29T08:55:46.735Z,7.10
2023-03-29T08:56:46.815Z,7.11
2023-03-29T08:57:46.696Z,7.11
2023-03-29T08:58:46.712Z,7.11
2023-03-29T08:59:46.690Z,7.11
2023-03-29T09:00:46.672Z,7.13
2023-03-29T09:01:48.556Z,7.13
2023-03-29T09:02:46.738Z,7.10
2023-03-29T09:03:46.752Z,7.10
2023-03-29T09:04:46.635Z,7.13
2023-03-29T09:05:46.630Z,7.16
2023-03-29T09:06:46.606Z,7.16
2023-03-29T09:07:46.603Z,7.18
2023-03-29T09:08:46.590Z,7.24
2023-03-29T09:09:46.597Z,7.25
2023-03-29T09:10:46.613Z,7.29
2023-03-29T09:11:46.586Z,7.34
2023-03-29T09:12:46.607Z,7.37
2023-03-29T09:13:46.554Z,7.43
2023-03-29T09:14:46.594Z,7.47
2023-03-29T09:15:46.637Z,7.52
2023-03-29T09:16:46.577Z,7.58
2023-03-29T09:17:49.038Z,7.62
2023-03-29T09:18:46.611Z,7.68
2023-03-29T09:19:46.482Z,7.73
2023-03-29T09:20:46.478Z,7.77
2023-03-29T09:21:46.465Z,7.81
2023-03-29T09:22:46.442Z,7.86
2023-03-29T09:23:46.431Z,7.88
2023-03-29T09:24:46.448Z,7.91
2023-03-29T09:25:53.460Z,7.94
2023-03-29T09:26:47.407Z,7.98
2023-03-29T09:27:46.409Z,7.98
2023-03-29T09:28:46.391Z,8.04
2023-03-29T09:29:46.368Z,8.09
2023-03-29T09:30:46.376Z,8.13
2023-03-29T09:31:46.428Z,8.16
2023-03-29T09:32:46.389Z,8.19
2023-03-29T09:33:46.337Z,8.20
2023-03-29T09:34:46.313Z,8.24
2023-03-29T09:35:46.358Z,8.31
2023-03-29T09:36:46.307Z,8.35
2023-03-29T09:37:46.287Z,8.38
2023-03-29T09:38:46.281Z,8.47
2023-03-29T09:39:46.277Z,8.50
2023-03-29T09:40:46.268Z,8.55
2023-03-29T09:41:46.242Z,8.57
2023-03-29T09:42:46.229Z,8.62
2023-03-29T09:43:46.224Z,8.65
2023-03-29T09:44:46.220Z,8.67
2023-03-29T09:45:46.247Z,8.67
2023-03-29T09:46:46.205Z,8.70
2023-03-29T09:47:46.237Z,8.70
2023-03-29T09:48:46.167Z,8.72
2023-03-29T09:49:46.180Z,8.74
2023-03-29T09:50:46.162Z,8.75
2023-03-29T09:51:46.144Z,8.75
2023-03-29T09:52:46.125Z,8.77
2023-03-29T09:53:46.131Z,8.78
2023-03-29T09:54:46.110Z,8.80
2023-03-29T09:55:47.822Z,8.81
2023-03-29T09:56:46.169Z,8.83
2023-03-29T09:57:46.080Z,8.85
2023-03-29T09:58:46.069Z,8.85
2023-03-29T09:59:46.076Z,8.88
2023-03-29T10:00:46.250Z,8.89
2023-03-29T10:01:46.151Z,8.90
2023-03-29T10:02:46.077Z,8.90
2023-03-29T10:03:46.110Z,8.92
2023-03-29T10:04:46.024Z,8.92
2023-03-29T10:05:46.019Z,8.93
2023-03-29T10:06:45.992Z,8.92
2023-03-29T10:07:45.983Z,8.92
2023-03-29T10:08:45.987Z,8.90
2023-03-29T10:09:45.971Z,8.90
2023-03-29T10:10:45.954Z,8.90
2023-03-29T10:11:45.940Z,8.89
2023-03-29T10:12:45.933Z,8.89
2023-03-29T10:13:45.916Z,8.90
2023-03-29T10:14:45.921Z,8.90
2023-03-29T10:15:45.913Z,8.90
2023-03-29T10:16:45.941Z,8.93
2023-03-29T10:17:45.936Z,8.96
2023-03-29T10:18:45.866Z,8.98
2023-03-29T10:19:45.855Z,9.01
2023-03-29T10:20:45.868Z,9.03
2023-03-29T10:21:45.870Z,9.08
2023-03-29T10:22:45.825Z,9.08
2023-03-29T10:23:45.815Z,9.11
2023-03-29T10:24:45.802Z,9.12
2023-03-29T10:25:45.825Z,9.16
2023-03-29T10:26:45.782Z,9.16
2023-03-29T10:27:45.779Z,9.19
2023-03-29T10:28:45.758Z,9.22
2023-03-29T10:29:45.759Z,9.24
2023-03-29T10:30:45.781Z,9.27
2023-03-29T10:31:45.824Z,9.27
2023-03-29T10:32:45.763Z,9.33
2023-03-29T10:33:45.731Z,9.37
2023-03-29T10:34:45.712Z,9.37
2023-03-29T10:35:45.728Z,9.42
2023-03-29T10:36:45.678Z,9.42
2023-03-29T10:37:45.671Z,9.45
2023-03-29T10:38:45.664Z,9.47
2023-03-29T10:39:45.657Z,9.47
2023-03-29T10:40:45.654Z,9.45
2023-03-29T10:41:45.630Z,9.44
2023-03-29T10:42:45.616Z,9.44
2023-03-29T10:43:45.611Z,9.45
2023-03-29T10:44:45.595Z,9.45
2023-03-29T10:45:45.660Z,9.45
2023-03-29T10:46:45.579Z,9.45
2023-03-29T10:47:45.619Z,9.45
2023-03-29T10:48:45.558Z,9.45
2023-03-29T10:49:45.547Z,9.45
2023-03-29T10:50:45.556Z,9.44
2023-03-29T10:51:45.527Z,9.42
2023-03-29T10:52:45.513Z,9.40
2023-03-29T10:53:45.537Z,9.40
2023-03-29T10:54:45.500Z,9.40
2023-03-29T10:55:45.501Z,9.37
2023-03-29T10:56:45.511Z,9.37
2023-03-29T10:57:45.503Z,9.37
2023-03-29T10:58:45.450Z,9.37
2023-03-29T10:59:45.451Z,9.40
2023-03-29T11:00:45.453Z,9.41
2023-03-29T11:01:45.468Z,9.41
2023-03-29T11:02:49.326Z,9.42
2023-03-29T11:03:45.484Z,9.45
2023-03-29T11:04:45.399Z,9.48
2023-03-29T11:05:45.402Z,9.50
2023-03-29T11:06:45.368Z,9.52
2023-03-29T11:07:45.362Z,9.54
2023-03-29T11:08:45.355Z,9.57
2023-03-29T11:09:45.340Z,9.59
2023-03-29T11:10:45.327Z,9.59
2023-03-29T11:11:45.335Z,9.63
2023-03-29T11:12:45.318Z,9.69
2023-03-29T11:13:45.297Z,9.70
2023-03-29T11:14:45.286Z,9.73
2023-03-29T11:15:45.332Z,9.77
2023-03-29T11:16:45.274Z,9.81
2023-03-29T11:17:45.278Z,9.84
2023-03-29T11:18:45.251Z,9.85
2023-03-29T11:19:45.239Z,9.90
2023-03-29T11:20:45.228Z,9.94
2023-03-29T11:21:45.239Z,9.96
2023-03-29T11:22:45.215Z,9.99
2023-03-29T11:23:45.204Z,9.99
2023-03-29T11:24:45.189Z,10.01
2023-03-29T11:25:45.177Z,10.05
2023-03-29T11:26:45.178Z,10.09
2023-03-29T11:27:45.167Z,10.16
2023-03-29T11:28:45.148Z,10.20
2023-03-29T11:29:45.136Z,10.30
2023-03-29T11:30:45.125Z,10.46
2023-03-29T11:31:45.170Z,10.55
2023-03-29T11:32:45.143Z,10.60
2023-03-29T11:33:45.101Z,10.62
2023-03-29T11:34:45.094Z,10.65
2023-03-29T11:35:45.112Z,10.68
2023-03-29T11:36:45.070Z,10.72
2023-03-29T11:37:45.050Z,10.70
2023-03-29T11:38:45.379Z,10.72
2023-03-29T11:39:45.040Z,10.68
2023-03-29T11:40:45.018Z,10.65
2023-03-29T11:41:45.034Z,10.64
2023-03-29T11:42:45.014Z,10.61
2023-03-29T11:43:44.998Z,10.60
2023-03-29T11:44:44.978Z,10.57
2023-03-29T11:45:44.994Z,10.57
2023-03-29T11:46:45.031Z,10.62
2023-03-29T11:47:45.010Z,10.85
2023-03-29T11:48:44.933Z,11.12
2023-03-29T11:49:44.942Z,11.13
2023-03-29T11:50:44.916Z,11.22
2023-03-29T11:51:44.921Z,11.38
2023-03-29T11:52:44.903Z,11.61
2023-03-29T11:53:44.896Z,11.82
2023-03-29T11:54:44.898Z,11.95
2023-03-29T11:55:44.879Z,12.05
2023-03-29T11:56:44.909Z,12.21
2023-03-29T11:57:44.855Z,12.32
2023-03-29T11:58:44.857Z,12.41
2023-03-29T11:59:44.833Z,12.61
2023-03-29T12:00:44.821Z,12.90
2023-03-29T12:01:44.876Z,13.16
2023-03-29T12:02:44.888Z,13.35
2023-03-29T12:03:46.939Z,13.36
2023-03-29T12:04:44.775Z,13.38
2023-03-29T12:05:44.763Z,13.47
2023-03-29T12:06:44.758Z,13.49
2023-03-29T12:07:44.777Z,13.65
2023-03-29T12:08:44.761Z,13.76
2023-03-29T12:09:44.723Z,13.83
2023-03-29T12:10:44.708Z,13.86
2023-03-29T12:11:44.720Z,13.86
2023-03-29T12:12:44.687Z,13.94
2023-03-29T12:13:44.685Z,13.93
2023-03-29T12:14:44.671Z,13.86
2023-03-29T12:15:44.663Z,13.83
2023-03-29T12:16:44.689Z,13.90
2023-03-29T12:17:44.695Z,13.96
2023-03-29T12:18:44.626Z,14.11
2023-03-29T12:19:44.619Z,14.05
2023-03-29T12:20:44.606Z,14.05
2023-03-29T12:21:44.618Z,13.98
2023-03-29T12:22:44.589Z,13.97
2023-03-29T12:23:44.588Z,13.94
2023-03-29T12:24:44.567Z,13.90
2023-03-29T12:25:44.561Z,13.90
2023-03-29T12:26:44.558Z,13.80
2023-03-29T12:27:44.535Z,13.72
2023-03-29T12:28:44.526Z,13.58
2023-03-29T12:29:44.519Z,13.53
2023-03-29T12:30:44.508Z,13.45
2023-03-29T12:31:44.551Z,13.40
2023-03-29T12:32:44.507Z,13.39
2023-03-29T12:33:44.478Z,13.38
2023-03-29T12:34:44.466Z,13.38
2023-03-29T12:35:44.483Z,13.43
2023-03-29T12:36:44.464Z,13.43
2023-03-29T12:37:44.444Z,13.43
2023-03-29T12:38:44.423Z,13.55
2023-03-29T12:39:44.421Z,13.68
2023-03-29T12:40:44.410Z,13.71
2023-03-29T12:41:44.411Z,13.64
2023-03-29T12:42:44.386Z,13.57
2023-03-29T12:43:44.378Z,13.49
2023-03-29T12:44:44.371Z,13.49
2023-03-29T12:45:44.401Z,13.46
2023-03-29T12:46:44.379Z,13.46
2023-03-29T12:47:44.367Z,13.54
2023-03-29T12:48:44.330Z,13.58
2023-03-29T12:49:44.322Z,13.61
2023-03-29T12:50:44.301Z,13.71
2023-03-29T12:51:44.317Z,13.78
2023-03-29T12:52:44.288Z,13.91
2023-03-29T12:53:44.294Z,14.01
2023-03-29T12:54:44.270Z,14.15
2023-03-29T12:55:44.261Z,14.33
2023-03-29T12:56:44.337Z,14.56
2023-03-29T12:57:44.258Z,14.79
2023-03-29T12:58:44.228Z,14.97
2023-03-29T12:59:44.223Z,15.12
2023-03-29T13:00:44.276Z,15.26
2023-03-29T13:01:44.306Z,15.30
2023-03-29T13:02:44.323Z,15.41
2023-03-29T13:03:44.191Z,15.58
2023-03-29T13:04:44.162Z,15.70
2023-03-29T13:05:44.192Z,15.78
2023-03-29T13:06:44.153Z,15.87
2023-03-29T13:07:44.132Z,16.02
2023-03-29T13:08:44.136Z,16.13
2023-03-29T13:09:44.110Z,16.24
2023-03-29T13:10:44.104Z,16.33
2023-03-29T13:11:44.113Z,16.42
2023-03-29T13:12:44.081Z,16.51
2023-03-29T13:13:44.061Z,16.58
2023-03-29T13:14:44.080Z,16.67